createdAt,value
2022-08-03T00:01:31.368Z,81.75
2022-08-03T00:04:34.106Z,82.67
2022-08-03T00:07:38.753Z,82.75
2022-08-03T00:10:40.849Z,82.88
2022-08-03T00:13:42.942Z,83.03
2022-08-03T00:16:45.002Z,82.35
2022-08-03T00:19:47.093Z,81.90
2022-08-03T00:22:49.895Z,81.30
2022-08-03T00:25:52.126Z,81.16
2022-08-03T00:28:54.222Z,80.39
2022-08-03T00:32:00.057Z,79.88
2022-08-03T00:35:07.940Z,80.18
2022-08-03T00:38:11.265Z,79.42
2022-08-03T00:41:13.334Z,78.39
2022-08-03T00:44:17.882Z,79.20
2022-08-03T00:47:19.945Z,78.74
2022-08-03T00:50:23.300Z,77.82
2022-08-03T00:53:25.466Z,77.75
2022-08-03T00:56:27.965Z,79.11
2022-08-03T00:59:30.364Z,78.55
2022-08-03T01:02:32.439Z,79.39
2022-08-03T01:05:52.281Z,78.91
2022-08-03T01:09:17.023Z,79.63
2022-08-03T01:12:33.219Z,79.81
2022-08-03T01:15:44.663Z,79.17
2022-08-03T01:19:24.325Z,79.60
2022-08-03T01:23:18.440Z,79.91
2022-08-03T01:26:47.047Z,79.84
2022-08-03T01:30:07.920Z,79.57
2022-08-03T01:33:17.783Z,78.35
2022-08-03T01:36:23.084Z,78.03
2022-08-03T01:39:25.555Z,77.59
2022-08-03T01:42:27.669Z,77.22
2022-08-03T01:45:30.105Z,76.86
2022-08-03T01:48:40.300Z,77.39
2022-08-03T01:52:04.541Z,76.22
2022-08-03T01:55:05.712Z,76.76
2022-08-03T01:58:08.558Z,76.98
2022-08-03T02:01:10.842Z,76.59
2022-08-03T02:04:13.150Z,76.44
2022-08-03T02:07:15.731Z,76.82
2022-08-03T02:10:34.611Z,76.52
2022-08-03T02:13:37.960Z,76.85
2022-08-03T02:16:40.134Z,76.33
2022-08-03T02:19:43.305Z,76.42
2022-08-03T02:22:45.538Z,77.11
2022-08-03T02:25:52.966Z,77.39
2022-08-03T02:28:55.067Z,76.57
2022-08-03T02:31:58.468Z,77.52
2022-08-03T02:35:01.241Z,76.36
2022-08-03T02:38:05.342Z,76.73
2022-08-03T02:41:15.184Z,75.89
2022-08-03T02:44:21.769Z,76.68
2022-08-03T02:47:24.004Z,75.03
2022-08-03T02:50:26.269Z,74.71
2022-08-03T02:53:28.425Z,75.83
2022-08-03T02:56:30.518Z,75.56
2022-08-03T02:59:32.703Z,75.01
2022-08-03T03:02:34.814Z,75.42
2022-08-03T03:05:55.713Z,74.94
2022-08-03T03:08:59.905Z,74.82
2022-08-03T03:12:02.129Z,74.33
2022-08-03T03:15:08.485Z,73.73
2022-08-03T03:18:10.676Z,74.24
2022-08-03T03:21:12.867Z,74.38
2022-08-03T03:24:15.075Z,73.82
2022-08-03T03:27:17.307Z,73.32
2022-08-03T03:30:19.543Z,72.21
2022-08-03T03:33:22.417Z,73.37
2022-08-03T03:36:24.517Z,72.99
2022-08-03T03:39:26.609Z,71.58
2022-08-03T03:42:28.688Z,72.00
2022-08-03T03:45:30.772Z,72.33
2022-08-03T03:48:33.162Z,71.93
2022-08-03T03:51:35.309Z,71.36
2022-08-03T03:54:44.374Z,71.59
2022-08-03T03:57:46.446Z,71.42
2022-08-03T04:00:48.668Z,70.10
2022-08-03T04:03:50.832Z,70.43
2022-08-03T04:07:11.712Z,70.12
2022-08-03T04:10:40.627Z,71.27
2022-08-03T04:14:03.827Z,71.07
2022-08-03T04:17:07.573Z,70.35
2022-08-03T04:20:10.552Z,70.42
2022-08-03T04:23:15.613Z,68.27
2022-08-03T04:26:21.274Z,70.13
2022-08-03T04:29:23.562Z,70.22
2022-08-03T04:32:28.626Z,70.44
2022-08-03T04:35:54.625Z,69.75
2022-08-03T04:39:19.896Z,69.65
2022-08-03T04:42:24.037Z,69.71
2022-08-03T04:45:27.312Z,69.39
2022-08-03T04:48:29.409Z,69.34
2022-08-03T04:51:31.544Z,68.69
2022-08-03T04:54:48.710Z,67.65
2022-08-03T04:57:52.863Z,69.55
2022-08-03T05:00:54.948Z,69.11
2022-08-03T05:03:57.034Z,69.40
2022-08-03T05:06:59.113Z,69.01
2022-08-03T05:10:16.109Z,69.46
2022-08-03T05:13:18.656Z,68.16
2022-08-03T05:16:20.723Z,69.54
2022-08-03T05:19:22.831Z,68.17
2022-08-03T05:22:24.907Z,68.33
2022-08-03T05:25:27.543Z,68.17
2022-08-03T05:28:29.777Z,69.16
2022-08-03T05:31:31.936Z,67.38
2022-08-03T05:34:34.265Z,68.57
2022-08-03T05:37:36.823Z,69.20
2022-08-03T05:40:38.996Z,69.54
2022-08-03T05:43:49.168Z,68.02
2022-08-03T05:46:51.683Z,68.67
2022-08-03T05:49:53.783Z,68.41
2022-08-03T05:52:57.864Z,68.84
2022-08-03T05:56:03.665Z,68.77
2022-08-03T05:59:37.653Z,68.91
2022-08-03T06:02:39.214Z,66.93
2022-08-03T06:05:43.390Z,67.20
2022-08-03T06:08:55.562Z,67.58
2022-08-03T06:11:57.679Z,66.58
2022-08-03T06:14:59.758Z,67.68
2022-08-03T06:18:02.278Z,68.00
2022-08-03T06:21:14.464Z,66.79
2022-08-03T06:24:17.905Z,67.64
2022-08-03T06:27:20.540Z,67.17
2022-08-03T06:30:38.377Z,67.17
2022-08-03T06:34:30.229Z,66.78
2022-08-03T06:37:02.843Z,66.57
2022-08-03T06:40:05.662Z,66.93
2022-08-03T06:43:12.206Z,68.32
2022-08-03T06:46:14.868Z,66.81
2022-08-03T06:49:17.149Z,68.00
2022-08-03T06:52:38.156Z,67.79
2022-08-03T06:55:42.358Z,67.53
2022-08-03T06:58:44.729Z,68.45
2022-08-03T07:01:46.885Z,67.95
2022-08-03T07:04:49.469Z,67.79
2022-08-03T07:07:55.699Z,68.75
2022-08-03T07:10:57.867Z,67.77
2022-08-03T07:14:00.017Z,67.04
2022-08-03T07:17:04.560Z,66.83
2022-08-03T07:20:15.266Z,67.94
2022-08-03T07:23:18.939Z,66.76
2022-08-03T07:26:21.589Z,65.68
2022-08-03T07:29:23.689Z,65.59
2022-08-03T07:32:25.874Z,64.96
2022-08-03T07:35:27.968Z,66.29
2022-08-03T07:38:30.114Z,67.33
2022-08-03T07:41:32.223Z,66.59
2022-08-03T07:44:34.304Z,67.57
2022-08-03T07:47:36.447Z,66.66
2022-08-03T07:50:38.525Z,66.01
2022-08-03T07:53:47.309Z,66.27
2022-08-03T07:56:50.018Z,66.48
2022-08-03T08:00:01.602Z,66.82
2022-08-03T08:03:14.156Z,66.58
2022-08-03T08:06:18.046Z,65.85
2022-08-03T08:09:20.457Z,66.39
2022-08-03T08:12:22.703Z,66.05
2022-08-03T08:15:25.002Z,67.45
2022-08-03T08:18:29.749Z,67.33
2022-08-03T08:21:53.093Z,67.88
2022-08-03T08:24:54.077Z,68.00
2022-08-03T08:28:22.474Z,67.88
2022-08-03T08:31:19.915Z,68.54
2022-08-03T08:34:22.021Z,68.07
2022-08-03T08:37:24.171Z,68.25
2022-08-03T08:40:26.292Z,69.69
2022-08-03T08:43:28.694Z,71.43
2022-08-03T08:46:33.911Z,71.26
2022-08-03T08:49:36.537Z,72.21
2022-08-03T08:52:41.347Z,70.37
2022-08-03T08:55:59.694Z,70.88
2022-08-03T08:59:02.940Z,70.19
2022-08-03T09:02:05.892Z,68.79
2022-08-03T09:05:16.838Z,68.68
2022-08-03T09:08:18.955Z,67.06
2022-08-03T09:11:51.741Z,66.01
2022-08-03T09:15:00.897Z,66.61
2022-08-03T09:18:09.477Z,65.43
2022-08-03T09:21:33.648Z,64.99
2022-08-03T09:24:41.413Z,66.05
2022-08-03T09:27:45.009Z,65.76
2022-08-03T09:30:59.131Z,65.25
2022-08-03T09:34:09.577Z,64.14
2022-08-03T09:37:18.878Z,64.24
2022-08-03T09:40:35.360Z,64.42
2022-08-03T09:43:47.119Z,64.51
2022-08-03T09:46:56.586Z,63.19
2022-08-03T09:50:06.317Z,62.07
2022-08-03T09:53:08.422Z,63.22
2022-08-03T09:56:34.313Z,63.60
2022-08-03T09:59:33.264Z,63.39
2022-08-03T10:02:35.555Z,63.92
2022-08-03T10:05:39.116Z,63.11
2022-08-03T10:08:41.190Z,62.59
2022-08-03T10:11:44.096Z,61.88
2022-08-03T10:14:46.714Z,61.87
2022-08-03T10:17:48.849Z,61.33
2022-08-03T10:20:53.601Z,61.98
2022-08-03T10:23:56.030Z,63.27
2022-08-03T10:27:07.248Z,63.12
2022-08-03T10:30:11.174Z,64.25
2022-08-03T10:33:49.988Z,62.81
2022-08-03T10:36:44.288Z,62.21
2022-08-03T10:39:56.301Z,61.98
2022-08-03T10:43:04.300Z,61.35
2022-08-03T10:46:07.371Z,61.18
2022-08-03T10:49:12.589Z,60.29
2022-08-03T10:52:31.755Z,57.57
2022-08-03T10:56:03.416Z,56.25
2022-08-03T10:59:08.975Z,54.40
2022-08-03T11:02:15.769Z,55.42
2022-08-03T11:05:29.619Z,56.00
2022-08-03T11:08:35.067Z,55.95
2022-08-03T11:11:41.893Z,55.65
2022-08-03T11:14:47.999Z,56.99
2022-08-03T11:18:12.088Z,55.31
2022-08-03T11:21:14.870Z,56.61
2022-08-03T11:24:42.560Z,57.70
2022-08-03T11:27:44.711Z,58.18
2022-08-03T11:30:46.794Z,58.08
2022-08-03T11:34:11.687Z,58.56
2022-08-03T11:37:23.086Z,59.04
2022-08-03T11:40:47.313Z,59.91
2022-08-03T11:43:49.431Z,59.54
2022-08-03T11:46:51.597Z,61.00
2022-08-03T11:49:59.232Z,61.34
2022-08-03T11:53:01.446Z,60.84
2022-08-03T11:56:03.808Z,60.67
2022-08-03T11:59:20.557Z,61.48
2022-08-03T12:02:24.017Z,61.70
2022-08-03T12:05:53.371Z,59.98
2022-08-03T12:08:57.019Z,61.46
2022-08-03T12:12:00.561Z,60.79
2022-08-03T12:15:04.155Z,60.37
2022-08-03T12:18:17.704Z,60.04
2022-08-03T12:21:24.343Z,58.86
2022-08-03T12:24:28.532Z,59.09
2022-08-03T12:27:30.702Z,59.73
2022-08-03T12:30:32.957Z,59.26
2022-08-03T12:33:56.535Z,59.85
2022-08-03T12:36:59.421Z,60.15
2022-08-03T12:40:09.560Z,61.03
2022-08-03T12:43:14.328Z,60.42
2022-08-03T12:46:19.808Z,60.39
2022-08-03T12:49:21.963Z,60.41
2022-08-03T12:52:24.102Z,61.33
2022-08-03T12:55:57.244Z,60.92
2022-08-03T12:58:55.784Z,59.72
2022-08-03T13:01:58.246Z,61.66
2022-08-03T13:05:01.095Z,61.48
2022-08-03T13:08:03.283Z,57.39
2022-08-03T13:11:55.590Z,54.12
2022-08-03T13:14:59.627Z,52.71
2022-08-03T13:18:01.708Z,55.98
2022-08-03T13:21:04.035Z,55.53
2022-08-03T13:24:06.536Z,50.51
2022-08-03T13:28:02.117Z,51.67
2022-08-03T13:30:30.952Z,54.55
2022-08-03T13:33:33.564Z,56.94
2022-08-03T13:36:59.215Z,56.52
2022-08-03T13:40:02.256Z,55.75
2022-08-03T13:43:05.260Z,57.18
2022-08-03T13:46:07.323Z,57.89
2022-08-03T13:49:09.495Z,58.32
2022-08-03T13:52:11.779Z,59.14
2022-08-03T13:55:13.860Z,58.59
2022-08-03T13:58:16.253Z,59.94
2022-08-03T14:01:29.695Z,60.57
2022-08-03T14:04:40.750Z,59.84
2022-08-03T14:07:42.822Z,58.99
2022-08-03T14:10:45.791Z,59.71
2022-08-03T14:13:47.973Z,60.62
2022-08-03T14:16:50.156Z,59.92
2022-08-03T14:19:53.367Z,60.14
2022-08-03T14:22:56.310Z,59.54
2022-08-03T14:25:58.678Z,60.11
2022-08-03T14:29:00.856Z,59.72
2022-08-03T14:32:09.965Z,59.71
2022-08-03T14:35:14.514Z,59.47
2022-08-03T14:38:16.786Z,60.12
2022-08-03T14:41:19.944Z,58.19
2022-08-03T14:44:22.401Z,61.28
2022-08-03T14:47:24.580Z,60.58
2022-08-03T14:50:41.076Z,55.07
2022-08-03T14:53:46.760Z,60.28
2022-08-03T14:56:48.842Z,60.83
2022-08-03T14:59:55.888Z,60.46
2022-08-03T15:02:59.550Z,55.83
2022-08-03T15:06:01.648Z,56.50
2022-08-03T15:09:22.437Z,55.55
2022-08-03T15:12:25.969Z,52.98
2022-08-03T15:15:28.062Z,56.50
2022-08-03T15:18:30.304Z,54.61
2022-08-03T15:21:46.114Z,55.24
2022-08-03T15:24:49.815Z,54.16
2022-08-03T15:28:03.411Z,52.76
2022-08-03T15:31:07.099Z,53.80
2022-08-03T15:34:09.259Z,53.25
2022-08-03T15:37:15.094Z,47.45
2022-08-03T15:40:18.908Z,45.00
2022-08-03T15:43:22.611Z,47.25
2022-08-03T15:46:29.509Z,51.62
2022-08-03T15:49:32.162Z,52.08
2022-08-03T15:52:36.438Z,45.46
2022-08-03T15:55:38.543Z,48.46
2022-08-03T15:59:03.616Z,46.64
2022-08-03T16:02:02.893Z,46.00
2022-08-03T16:05:05.568Z,47.45
2022-08-03T16:08:13.248Z,53.65
2022-08-03T16:11:16.429Z,53.70
2022-08-03T16:14:32.368Z,53.80
2022-08-03T16:17:38.882Z,55.42
2022-08-03T16:20:41.759Z,54.38
2022-08-03T16:23:47.287Z,54.21
2022-08-03T16:26:49.680Z,53.63
2022-08-03T16:29:56.832Z,55.76
2022-08-03T16:32:58.903Z,55.26
2022-08-03T16:36:01.155Z,57.37
2022-08-03T16:39:03.405Z,54.18
2022-08-03T16:42:05.626Z,57.53
2022-08-03T16:45:09.135Z,56.68
2022-08-03T16:48:11.353Z,56.99
2022-08-03T16:51:13.427Z,57.77
2022-08-03T16:54:15.763Z,58.92
2022-08-03T16:57:55.964Z,58.16
2022-08-03T17:00:43.791Z,58.69
2022-08-03T17:04:01.595Z,58.90
2022-08-03T17:07:13.673Z,59.09
2022-08-03T17:10:27.031Z,58.65
2022-08-03T17:13:39.806Z,58.40
2022-08-03T17:16:52.854Z,59.09
2022-08-03T17:19:56.751Z,57.88
2022-08-03T17:23:34.479Z,60.08
2022-08-03T17:26:50.015Z,61.37
2022-08-03T17:29:57.013Z,61.75
2022-08-03T17:32:59.089Z,61.78
2022-08-03T17:36:01.216Z,61.21
2022-08-03T17:39:05.281Z,60.34
2022-08-03T17:42:29.349Z,60.93
2022-08-03T17:45:52.060Z,59.62
2022-08-03T17:48:55.371Z,58.52
2022-08-03T17:52:04.108Z,60.06
2022-08-03T17:55:57.871Z,60.08
2022-08-03T17:58:59.438Z,57.40
2022-08-03T18:02:49.811Z,58.71
2022-08-03T18:06:10.493Z,60.08
2022-08-03T18:10:03.485Z,60.61
2022-08-03T18:13:04.183Z,61.64
2022-08-03T18:16:13.434Z,61.00
2022-08-03T18:19:15.915Z,61.37
2022-08-03T18:22:21.455Z,61.97
2022-08-03T18:25:44.966Z,62.18
2022-08-03T18:28:51.694Z,61.48
2022-08-03T18:32:04.023Z,61.92
2022-08-03T18:35:13.662Z,61.18
2022-08-03T18:38:16.842Z,61.53
2022-08-03T18:41:32.147Z,60.90
2022-08-03T18:48:05.954Z,61.85
2022-08-03T18:51:28.518Z,62.55
2022-08-03T18:55:13.965Z,62.42
2022-08-03T18:58:34.305Z,63.18
2022-08-03T19:01:59.981Z,64.20
2022-08-03T19:05:09.004Z,64.33
2022-08-03T19:08:17.156Z,63.86
2022-08-03T19:12:12.718Z,64.48
2022-08-03T19:15:13.551Z,64.14
2022-08-03T19:18:18.159Z,64.99
2022-08-03T19:21:20.299Z,66.14
2022-08-03T19:24:26.108Z,65.05
2022-08-03T19:27:29.898Z,65.38
2022-08-03T19:30:38.926Z,65.31
2022-08-03T19:33:55.830Z,66.32
2022-08-03T19:36:59.270Z,67.35
2022-08-03T19:40:02.027Z,67.62
2022-08-03T19:43:33.051Z,69.24
2022-08-03T19:47:00.902Z,70.79
2022-08-03T19:50:14.296Z,69.61
2022-08-03T19:53:16.736Z,70.27
2022-08-03T19:56:23.015Z,71.06
2022-08-03T19:59:26.364Z,71.35
2022-08-03T20:02:29.750Z,71.59
2022-08-03T20:05:44.867Z,71.57
2022-08-03T20:08:54.018Z,72.32
2022-08-03T20:11:57.337Z,72.63
2022-08-03T20:14:59.830Z,72.79
2022-08-03T20:18:02.899Z,73.03
2022-08-03T20:21:15.167Z,72.70
2022-08-03T20:24:25.618Z,73.44
2022-08-03T20:27:30.296Z,73.59
2022-08-03T20:30:32.531Z,73.68
2022-08-03T20:33:45.861Z,74.05
2022-08-03T20:36:50.669Z,73.91
2022-08-03T20:39:54.393Z,73.24
2022-08-03T20:42:56.549Z,73.00
2022-08-03T20:46:29.251Z,73.30
2022-08-03T20:49:22.965Z,72.38
2022-08-03T20:52:25.590Z,73.02
2022-08-03T20:55:47.212Z,72.22
2022-08-03T20:58:51.522Z,71.76
2022-08-03T21:01:53.978Z,71.83
2022-08-03T21:04:56.901Z,71.66
2022-08-03T21:08:06.720Z,71.54
2022-08-03T21:11:15.835Z,72.03
2022-08-03T21:13:05.597Z,61.66
2022-08-03T21:14:28.857Z,70.41
2022-08-03T21:17:42.375Z,71.06
2022-08-03T21:20:45.067Z,71.53
2022-08-03T21:23:52.675Z,72.12
2022-08-03T21:26:55.131Z,70.91
2022-08-03T21:30:02.305Z,72.07
2022-08-03T21:33:07.700Z,71.49
2022-08-03T21:36:10.900Z,70.69
2022-08-03T21:39:13.105Z,68.86
2022-08-03T21:42:15.215Z,70.40
2022-08-03T21:45:17.923Z,71.02
2022-08-03T21:48:20.733Z,72.19
2022-08-03T21:51:25.065Z,71.56
2022-08-03T21:54:34.461Z,72.19
2022-08-03T21:57:37.568Z,69.69
2022-08-03T22:00:42.891Z,69.94
2022-08-03T22:03:51.113Z,70.71
2022-08-03T22:06:55.467Z,70.30
2022-08-03T22:09:58.768Z,69.74
2022-08-03T22:13:00.850Z,71.10
2022-08-03T22:16:03.006Z,71.95
2022-08-03T22:19:05.088Z,71.53
2022-08-03T22:22:08.522Z,70.72
2022-08-03T22:25:15.242Z,71.74
2022-08-03T22:28:17.341Z,71.96
2022-08-03T22:31:30.557Z,71.61
2022-08-03T22:34:42.523Z,71.62
2022-08-03T22:37:44.658Z,72.20
2022-08-03T22:40:50.863Z,73.78
2022-08-03T22:43:53.183Z,73.60
2022-08-03T22:46:55.717Z,73.55
2022-08-03T22:50:31.210Z,73.41
2022-08-03T22:53:21.908Z,74.18
2022-08-03T22:56:24.019Z,75.31
2022-08-03T22:59:40.884Z,75.48
2022-08-03T23:02:45.339Z,77.69
2022-08-03T23:06:01.436Z,77.45
2022-08-03T23:09:13.426Z,77.10
2022-08-03T23:12:20.241Z,76.82
2022-08-03T23:15:22.350Z,77.67
2022-08-03T23:18:25.490Z,77.45
2022-08-03T23:21:53.890Z,76.59
2022-08-03T23:24:52.661Z,75.72
2022-08-03T23:28:04.891Z,74.95
2022-08-03T23:31:08.479Z,74.46
2022-08-03T23:34:29.206Z,74.33
2022-08-03T23:37:31.343Z,74.52
2022-08-03T23:40:33.523Z,74.57
2022-08-03T23:43:52.374Z,74.90
2022-08-03T23:46:56.057Z,74.43
2022-08-03T23:49:58.146Z,73.17
2022-08-03T23:53:39.498Z,71.76
2022-08-03T23:56:45.911Z,70.84
